Time;durP1;ratioP1;P1;durP2;ratioP2;P2;SDS_P1;SDS_P2;PMS_P1;PMS_P2;Temp;Humidity;BMP_temperature;BMP_pressure;BME280_temperature;BME280_humidity;BME280_pressure;Samples;Min_cycle;Max_cycle;Signal;HPM_P1;HPM_P2
2023/11/17 00:01:08;;;;;;;;;;;15.80;91.50;;;;;;5052842;28;19924;-70
2023/11/17 00:03:34;;;;;;;;;;;15.80;91.70;;;;;;5052325;28;19967;-70
2023/11/17 00:06:01;;;;;;;;;;;15.90;91.60;;;;;;5052305;28;19909;-70
2023/11/17 00:08:28;;;;;;;;;;;15.90;91.70;;;;;;5052184;28;19913;-70
2023/11/17 00:10:55;;;;;;;;;;;15.70;91.50;;;;;;5052664;28;19909;-70
2023/11/17 00:13:21;;;;;;;;;;;15.90;91.60;;;;;;5052470;28;19915;-70
2023/11/17 00:15:48;;;;;;;;;;;15.90;91.60;;;;;;5052502;28;20323;-70
2023/11/17 00:18:15;;;;;;;;;;;15.80;91.50;;;;;;5052533;28;19919;-70
2023/11/17 00:20:40;;;;;;;;;;;15.90;91.80;;;;;;5052297;28;19960;-70
2023/11/17 00:23:06;;;;;;;;;;;15.90;91.60;;;;;;5052448;28;20326;-70
2023/11/17 00:25:33;;;;;;;;;;;15.90;91.70;;;;;;5052103;28;19966;-70
2023/11/17 00:27:59;;;;;;;;;;;15.90;91.60;;;;;;5052427;28;19940;-69
2023/11/17 00:30:24;;;;;;;;;;;15.90;91.80;;;;;;5052796;28;20282;-70
2023/11/17 00:32:50;;;;;;;;;;;15.90;91.70;;;;;;5052340;28;19943;-70
2023/11/17 00:35:16;;;;;;;;;;;16.00;91.70;;;;;;5052075;28;19915;-70
2023/11/17 00:37:43;;;;;;;;;;;16.10;91.80;;;;;;5051915;28;19909;-70
2023/11/17 00:40:10;;;;;;;;;;;15.80;91.70;;;;;;5052076;28;19970;-70
2023/11/17 00:42:35;;;;;;;;;;;15.90;91.40;;;;;;5052007;28;19909;-70
2023/11/17 00:45:01;;;;;;;;;;;15.80;91.60;;;;;;5052056;28;19916;-70
2023/11/17 00:47:27;;;;;;;;;;;15.90;91.70;;;;;;5051846;28;19913;-70
2023/11/17 00:49:52;;;;;;;;;;;15.90;91.60;;;;;;5051944;28;19913;-70
2023/11/17 00:52:18;;;;;;;;;;;15.90;91.80;;;;;;5051984;28;20007;-70
2023/11/17 00:54:47;;;;;;;;;;;15.90;91.70;;;;;;5034376;28;19909;-70
2023/11/17 00:57:13;;;;;;;;;;;16.20;91.70;;;;;;5051831;28;19948;-70
2023/11/17 00:59:38;;;;;;;;;;;15.90;91.80;;;;;;5052439;28;20377;-68
2023/11/17 01:02:04;;;;;;;;;;;15.90;91.60;;;;;;5052011;28;20340;-68
2023/11/17 01:04:30;;;;;;;;;;;16.00;91.90;;;;;;5054101;28;19976;-67
2023/11/17 01:06:56;;;;;;;;;;;16.00;91.90;;;;;;5055667;28;19955;-67
2023/11/17 01:09:22;;;;;;;;;;;15.90;91.60;;;;;;5055769;28;19908;-68
2023/11/17 01:11:47;;;;;;;;;;;16.00;92.00;;;;;;5055482;28;20344;-68
2023/11/17 01:14:13;;;;;;;;;;;16.00;91.90;;;;;;5055592;28;19971;-68
2023/11/17 01:16:38;;;;;;;;;;;16.00;91.80;;;;;;5055655;28;19944;-68
2023/11/17 01:19:04;;;;;;;;;;;16.00;91.90;;;;;;5055602;28;19960;-68
2023/11/17 01:21:32;;;;;;;;;;;16.00;91.90;;;;;;5055562;28;19909;-68
2023/11/17 01:24:02;;;;;;;;;;;16.00;91.80;;;;;;5055549;28;20095;-68
2023/11/17 01:26:28;;;;;;;;;;;16.00;89.40;;;;;;5055799;28;19909;-68
2023/11/17 01:28:54;;;;;;;;;;;16.00;92.10;;;;;;5055192;28;19909;-68
2023/11/17 01:31:21;;;;;;;;;;;16.00;92.30;;;;;;5055182;28;19916;-68
2023/11/17 01:33:48;;;;;;;;;;;16.10;92.00;;;;;;5055353;28;20007;-68
2023/11/17 01:36:14;;;;;;;;;;;16.00;92.00;;;;;;5055319;28;20004;-68
2023/11/17 01:38:40;;;;;;;;;;;16.00;91.70;;;;;;5055087;28;19909;-68
2023/11/17 01:41:06;;;;;;;;;;;16.10;92.10;;;;;;5054975;28;19917;-68
2023/11/17 01:43:31;;;;;;;;;;;16.10;92.00;;;;;;5054926;28;19912;-68
2023/11/17 01:45:57;;;;;;;;;;;16.10;92.10;;;;;;5055075;28;19913;-68
2023/11/17 01:48:23;;;;;;;;;;;15.90;92.10;;;;;;5054933;28;19916;-68
2023/11/17 01:50:49;;;;;;;;;;;16.10;92.00;;;;;;5054854;28;19909;-68
2023/11/17 01:53:17;;;;;;;;;;;16.10;92.00;;;;;;5054779;28;20260;-68
2023/11/17 01:55:43;;;;;;;;;;;16.10;92.10;;;;;;5055085;28;20151;-68
2023/11/17 01:58:09;;;;;;;;;;;16.10;92.00;;;;;;5054638;28;20257;-68
2023/11/17 02:00:35;;;;;;;;;;;16.10;92.20;;;;;;5054813;28;19923;-68
2023/11/17 02:03:00;;;;;;;;;;;16.00;91.80;;;;;;5054360;28;20353;-68
2023/11/17 02:05:27;;;;;;;;;;;16.10;92.00;;;;;;5054570;28;20267;-68
2023/11/17 02:07:52;;;;;;;;;;;16.20;92.20;;;;;;5054729;28;20074;-68
2023/11/17 02:10:33;;;;;;;;;;;16.20;92.00;;;;;;5054538;28;20183;-68
2023/11/17 02:13:02;;;;;;;;;;;16.20;89.70;;;;;;5054269;28;19913;-68
2023/11/17 02:15:30;;;;;;;;;;;16.10;92.10;;;;;;5054540;28;20274;-68
2023/11/17 02:17:56;;;;;;;;;;;16.20;92.20;;;;;;5054536;28;19932;-68
2023/11/17 02:20:25;;;;;;;;;;;16.20;92.00;;;;;;5054407;28;19923;-68
2023/11/17 02:22:57;;;;;;;;;;;16.20;92.20;;;;;;5054511;28;19912;-68
2023/11/17 02:25:23;;;;;;;;;;;16.20;92.10;;;;;;5054508;28;19909;-68
2023/11/17 02:27:53;;;;;;;;;;;16.20;91.90;;;;;;5054091;28;19913;-68
2023/11/17 02:30:19;;;;;;;;;;;16.20;92.10;;;;;;5054071;28;19924;-68
2023/11/17 02:32:48;;;;;;;;;;;16.20;92.00;;;;;;5053955;28;19915;-68
2023/11/17 02:35:15;;;;;;;;;;;16.20;91.80;;;;;;5053994;28;19909;-68
2023/11/17 02:37:41;;;;;;;;;;;16.20;92.00;;;;;;5053943;28;19914;-68
2023/11/17 02:40:18;;;;;;;;;;;16.20;92.00;;;;;;5054095;28;20345;-68
2023/11/17 02:42:53;;;;;;;;;;;16.30;91.20;;;;;;5054675;28;20278;-68
2023/11/17 02:45:36;;;;;;;;;;;16.30;89.50;;;;;;5052151;28;19909;-68
2023/11/17 02:48:02;;;;;;;;;;;16.20;92.00;;;;;;5053934;28;19916;-68
2023/11/17 02:50:38;;;;;;;;;;;16.20;91.90;;;;;;5053976;28;20259;-68
2023/11/17 02:53:23;;;;;;;;;;;16.30;91.80;;;;;;5052513;28;19913;-68
2023/11/17 02:56:04;;;;;;;;;;;16.20;92.00;;;;;;5052548;28;19908;-68
2023/11/17 02:58:54;;;;;;;;;;;16.30;91.80;;;;;;5053376;28;20425;-68
2023/11/17 03:01:39;;;;;;;;;;;16.20;91.90;;;;;;5052599;28;19908;-68
2023/11/17 03:04:26;;;;;;;;;;;16.20;89.40;;;;;;5053182;28;19960;-68
2023/11/17 03:07:11;;;;;;;;;;;16.20;92.10;;;;;;5052943;28;19909;-68
2023/11/17 03:09:56;;;;;;;;;;;16.10;91.90;;;;;;5053142;28;20425;-68
2023/11/17 03:12:41;;;;;;;;;;;16.20;91.80;;;;;;5053089;28;19913;-68
2023/11/17 03:15:09;;;;;;;;;;;16.20;91.90;;;;;;5053151;28;19919;-68
2023/11/17 03:17:40;;;;;;;;;;;16.30;91.40;;;;;;5053094;28;20012;-68
2023/11/17 03:20:15;;;;;;;;;;;16.20;89.40;;;;;;5053056;28;20410;-68
2023/11/17 03:22:44;;;;;;;;;;;15.90;89.20;;;;;;5053460;28;20280;-68
2023/11/17 03:25:17;;;;;;;;;;;16.30;89.50;;;;;;5052588;28;20403;-68
2023/11/17 03:27:43;;;;;;;;;;;16.30;89.40;;;;;;5052226;28;19915;-68
2023/11/17 03:30:12;;;;;;;;;;;16.20;91.90;;;;;;5052887;28;20004;-68
2023/11/17 03:32:37;;;;;;;;;;;16.30;91.40;;;;;;5052895;28;19919;-68
2023/11/17 03:35:04;;;;;;;;;;;16.30;92.20;;;;;;5053008;28;20423;-68
2023/11/17 03:37:34;;;;;;;;;;;16.30;91.60;;;;;;5053128;28;19912;-68
2023/11/17 03:40:06;;;;;;;;;;;16.20;91.70;;;;;;5053181;28;20417;-68
2023/11/17 03:42:32;;;;;;;;;;;16.20;91.80;;;;;;5059405;28;19974;-68
2023/11/17 03:44:58;;;;;;;;;;;16.20;92.00;;;;;;5052696;28;19913;-68
2023/11/17 03:47:23;;;;;;;;;;;16.30;92.00;;;;;;5052873;28;20260;-68
2023/11/17 03:49:49;;;;;;;;;;;16.20;92.00;;;;;;5052707;28;20354;-68
2023/11/17 03:52:15;;;;;;;;;;;16.30;92.00;;;;;;5052648;28;20004;-68
2023/11/17 03:54:40;;;;;;;;;;;16.30;91.90;;;;;;5052546;28;19916;-68
2023/11/17 03:57:06;;;;;;;;;;;16.20;92.00;;;;;;5052456;28;20291;-68
2023/11/17 03:59:32;;;;;;;;;;;16.10;92.00;;;;;;5052432;28;19928;-68
2023/11/17 04:01:58;;;;;;;;;;;16.10;91.80;;;;;;5052640;28;20014;-68
2023/11/17 04:04:25;;;;;;;;;;;16.20;92.00;;;;;;5052219;28;20580;-68
2023/11/17 04:06:52;;;;;;;;;;;16.20;92.00;;;;;;5052679;28;20335;-68
2023/11/17 04:09:21;;;;;;;;;;;16.30;92.10;;;;;;5052800;28;20405;-68
2023/11/17 04:11:48;;;;;;;;;;;16.00;92.10;;;;;;5052572;28;19919;-68
2023/11/17 04:14:15;;;;;;;;;;;16.20;92.10;;;;;;5052400;28;19909;-68
2023/11/17 04:16:40;;;;;;;;;;;16.50;92.10;;;;;;5052291;28;19995;-68
2023/11/17 04:19:06;;;;;;;;;;;16.50;91.90;;;;;;5052538;28;19908;-68
2023/11/17 04:21:35;;;;;;;;;;;16.50;92.10;;;;;;5052567;28;20391;-68
2023/11/17 04:24:02;;;;;;;;;;;16.20;89.50;;;;;;5052111;28;19916;-68
2023/11/17 04:26:29;;;;;;;;;;;16.20;92.20;;;;;;5052429;28;20333;-68
2023/11/17 04:28:55;;;;;;;;;;;16.30;92.20;;;;;;5052429;28;19916;-68
2023/11/17 04:31:21;;;;;;;;;;;16.20;92.00;;;;;;5052362;28;19908;-68
2023/11/17 04:33:48;;;;;;;;;;;16.20;92.00;;;;;;5052077;28;20367;-68
2023/11/17 04:36:14;;;;;;;;;;;16.20;92.00;;;;;;5052580;28;19909;-68
2023/11/17 04:38:39;;;;;;;;;;;16.20;92.10;;;;;;5054617;28;20272;-68
2023/11/17 04:41:05;;;;;;;;;;;16.20;92.00;;;;;;5056096;28;19960;-68
2023/11/17 04:43:32;;;;;;;;;;;16.20;92.00;;;;;;5056389;28;19920;-68
2023/11/17 04:45:58;;;;;;;;;;;16.20;92.00;;;;;;5056317;28;19932;-68
2023/11/17 04:48:24;;;;;;;;;;;16.50;92.20;;;;;;5056477;28;20343;-68
2023/11/17 04:50:50;;;;;;;;;;;16.20;92.00;;;;;;5056344;28;20271;-68
2023/11/17 04:53:16;;;;;;;;;;;16.20;92.10;;;;;;5056187;28;19908;-68
2023/11/17 04:55:45;;;;;;;;;;;16.20;92.00;;;;;;5055963;28;19916;-68
2023/11/17 04:58:14;;;;;;;;;;;16.20;90.10;;;;;;5055817;28;19948;-68
2023/11/17 05:00:40;;;;;;;;;;;16.20;90.70;;;;;;5055945;28;19917;-68
2023/11/17 05:03:06;;;;;;;;;;;16.10;91.80;;;;;;5055550;28;20284;-68
2023/11/17 05:05:31;;;;;;;;;;;16.40;92.00;;;;;;5056174;28;19917;-68
2023/11/17 05:07:59;;;;;;;;;;;16.10;91.90;;;;;;5055953;28;19958;-68
2023/11/17 05:10:26;;;;;;;;;;;16.20;92.00;;;;;;5055969;28;19909;-68
2023/11/17 05:12:52;;;;;;;;;;;16.30;92.00;;;;;;5055481;28;20390;-68
2023/11/17 05:15:20;;;;;;;;;;;16.30;92.10;;;;;;5055854;28;19920;-67
2023/11/17 05:17:49;;;;;;;;;;;16.20;92.00;;;;;;5055521;28;19909;-68
2023/11/17 05:20:22;;;;;;;;;;;16.20;92.20;;;;;;5055370;28;19917;-69
2023/11/17 05:22:48;;;;;;;;;;;16.20;89.60;;;;;;5055639;28;19932;-68
2023/11/17 05:25:15;;;;;;;;;;;16.20;92.30;;;;;;5055447;28;19916;-68
2023/11/17 05:27:42;;;;;;;;;;;16.10;92.00;;;;;;5055251;28;19956;-68
2023/11/17 05:30:12;;;;;;;;;;;16.20;92.30;;;;;;5055181;28;19909;-67
2023/11/17 05:32:40;;;;;;;;;;;16.20;92.00;;;;;;5055494;28;19919;-67
2023/11/17 05:35:07;;;;;;;;;;;16.20;92.30;;;;;;5055523;28;19909;-68
2023/11/17 05:37:33;;;;;;;;;;;16.20;92.00;;;;;;5055031;28;19909;-68
2023/11/17 05:39:59;;;;;;;;;;;16.10;92.40;;;;;;5055334;28;19999;-68
2023/11/17 05:42:25;;;;;;;;;;;16.20;92.30;;;;;;5054972;28;20426;-68
2023/11/17 05:44:51;;;;;;;;;;;16.20;92.40;;;;;;5054915;28;19992;-67
2023/11/17 05:47:17;;;;;;;;;;;16.30;92.40;;;;;;5054883;28;19913;-68
2023/11/17 05:49:44;;;;;;;;;;;16.10;92.10;;;;;;5053856;28;19915;-68
2023/11/17 05:52:10;;;;;;;;;;;16.10;92.70;;;;;;5055607;28;20287;-68
2023/11/17 05:54:44;;;;;;;;;;;16.30;92.50;;;;;;5054724;28;19909;-68
2023/11/17 05:57:13;;;;;;;;;;;16.20;90.10;;;;;;5055033;28;19979;-68
2023/11/17 05:59:38;;;;;;;;;;;16.20;90.20;;;;;;5054667;28;20367;-68
2023/11/17 06:02:07;;;;;;;;;;;16.10;92.30;;;;;;5054902;28;19963;-68
2023/11/17 06:04:34;;;;;;;;;;;16.20;92.70;;;;;;5054709;28;19920;-68
2023/11/17 06:07:03;;;;;;;;;;;16.30;92.70;;;;;;5054636;28;19955;-68
2023/11/17 06:09:29;;;;;;;;;;;16.20;90.30;;;;;;5054466;28;19916;-67
2023/11/17 06:11:57;;;;;;;;;;;16.20;92.80;;;;;;5054425;28;19909;-67
2023/11/17 06:14:23;;;;;;;;;;;16.20;90.20;;;;;;5054581;28;19909;-67
2023/11/17 06:16:53;;;;;;;;;;;16.20;92.80;;;;;;5054602;28;19916;-68
2023/11/17 06:19:22;;;;;;;;;;;16.20;90.50;;;;;;5054641;28;20283;-68
2023/11/17 06:21:48;;;;;;;;;;;16.10;92.60;;;;;;5054301;28;19915;-68
2023/11/17 06:24:14;;;;;;;;;;;16.50;92.90;;;;;;5054537;28;19909;-68
2023/11/17 06:26:41;;;;;;;;;;;16.20;92.90;;;;;;5054423;28;19915;-68
2023/11/17 06:29:07;;;;;;;;;;;16.20;92.90;;;;;;5054344;28;19912;-68
2023/11/17 06:31:33;;;;;;;;;;;16.20;92.80;;;;;;5054177;28;19928;-68
2023/11/17 06:33:59;;;;;;;;;;;16.20;92.80;;;;;;5054699;28;20007;-68
2023/11/17 06:36:25;;;;;;;;;;;16.30;92.90;;;;;;5054229;28;20298;-67
2023/11/17 06:38:51;;;;;;;;;;;16.30;92.90;;;;;;5054185;28;19909;-67
2023/11/17 06:41:16;;;;;;;;;;;16.20;92.80;;;;;;5053875;28;20338;-68
2023/11/17 06:43:42;;;;;;;;;;;16.30;92.80;;;;;;5053914;28;19963;-67
2023/11/17 06:46:07;;;;;;;;;;;16.30;92.90;;;;;;5054099;28;19919;-68
2023/11/17 06:48:34;;;;;;;;;;;16.50;92.90;;;;;;5054352;28;19912;-68
2023/11/17 06:51:06;;;;;;;;;;;16.30;91.90;;;;;;5053910;28;19963;-68
2023/11/17 06:53:32;;;;;;;;;;;16.30;91.70;;;;;;5035980;28;20421;-67
2023/11/17 06:56:02;;;;;;;;;;;16.30;92.80;;;;;;5053954;28;19945;-67
2023/11/17 06:58:27;;;;;;;;;;;16.10;92.40;;;;;;5053611;28;19913;-68
2023/11/17 07:00:53;;;;;;;;;;;16.40;92.60;;;;;;5053459;28;19916;-68
2023/11/17 07:03:21;;;;;;;;;;;16.30;92.60;;;;;;5053289;28;19975;-67
2023/11/17 07:05:51;;;;;;;;;;;16.30;92.70;;;;;;5053708;28;19913;-67
2023/11/17 07:08:18;;;;;;;;;;;16.40;92.70;;;;;;5053222;28;20398;-67
2023/11/17 07:10:44;;;;;;;;;;;16.30;92.60;;;;;;5053562;28;19988;-68
2023/11/17 07:13:10;;;;;;;;;;;16.30;92.70;;;;;;5053453;28;19955;-68
2023/11/17 07:15:37;;;;;;;;;;;16.40;92.80;;;;;;5053329;28;19969;-67
2023/11/17 07:18:03;;;;;;;;;;;16.40;92.70;;;;;;5053326;28;19931;-69
2023/11/17 07:20:31;;;;;;;;;;;16.30;92.60;;;;;;5053421;28;19917;-68
2023/11/17 07:22:57;;;;;;;;;;;16.40;92.60;;;;;;5053393;28;20337;-68
2023/11/17 07:25:22;;;;;;;;;;;16.40;92.60;;;;;;5053331;28;19952;-68
2023/11/17 07:27:49;;;;;;;;;;;16.40;92.40;;;;;;5053324;28;19992;-67
2023/11/17 07:30:15;;;;;;;;;;;16.40;92.10;;;;;;5053239;28;19912;-68
2023/11/17 07:32:43;;;;;;;;;;;16.30;92.30;;;;;;5053272;28;19908;-67
2023/11/17 07:35:11;;;;;;;;;;;16.30;92.40;;;;;;5053673;28;19962;-67
2023/11/17 07:37:37;;;;;;;;;;;16.40;92.60;;;;;;5054339;28;19909;-67
2023/11/17 07:40:04;;;;;;;;;;;16.30;92.60;;;;;;5053006;28;19970;-69
2023/11/17 07:42:30;;;;;;;;;;;16.40;92.00;;;;;;5053353;28;19908;-67
2023/11/17 07:44:56;;;;;;;;;;;16.30;92.30;;;;;;5052785;28;19909;-67
2023/11/17 07:47:23;;;;;;;;;;;16.30;92.40;;;;;;5053079;28;19963;-67
2023/11/17 07:49:49;;;;;;;;;;;16.60;92.40;;;;;;5053078;28;20404;-67
2023/11/17 07:52:15;;;;;;;;;;;16.40;92.40;;;;;;5052944;28;19909;-67
2023/11/17 07:54:42;;;;;;;;;;;16.30;92.40;;;;;;5052867;28;20279;-67
2023/11/17 07:57:08;;;;;;;;;;;16.40;92.20;;;;;;5052840;28;20365;-68
2023/11/17 07:59:34;;;;;;;;;;;16.30;92.20;;;;;;5052781;28;20315;-68
2023/11/17 08:02:00;;;;;;;;;;;16.40;92.20;;;;;;5052821;28;19908;-68
2023/11/17 08:04:28;;;;;;;;;;;16.40;92.20;;;;;;5052823;28;20070;-68
2023/11/17 08:06:54;;;;;;;;;;;16.40;92.30;;;;;;5034648;28;20050;-68
2023/11/17 08:09:20;;;;;;;;;;;16.30;92.20;;;;;;5052648;28;19916;-68
2023/11/17 08:11:48;;;;;;;;;;;16.20;92.10;;;;;;5052549;28;19909;-67
2023/11/17 08:14:14;;;;;;;;;;;16.40;92.20;;;;;;5052308;28;19963;-68
2023/11/17 08:16:40;;;;;;;;;;;16.40;92.20;;;;;;5052433;28;20324;-68
2023/11/17 08:19:09;;;;;;;;;;;16.50;92.30;;;;;;5052489;28;20286;-68
2023/11/17 08:21:35;;;;;;;;;;;16.50;90.40;;;;;;5052500;28;20003;-68
2023/11/17 08:24:01;;;;;;;;;;;16.30;92.00;;;;;;5052270;28;19948;-68
2023/11/17 08:26:30;;;;;;;;;;;16.30;92.20;;;;;;5052388;28;19920;-68
2023/11/17 08:28:57;;;;;;;;;;;16.40;90.20;;;;;;5052230;28;19919;-67
2023/11/17 08:31:22;;;;;;;;;;;16.40;92.20;;;;;;5052375;28;19909;-68
2023/11/17 08:33:48;;;;;;;;;;;16.30;92.10;;;;;;5052866;28;19916;-68
2023/11/17 08:36:17;;;;;;;;;;;16.30;92.00;;;;;;5052163;28;19909;-68
2023/11/17 08:38:44;;;;;;;;;;;16.30;92.10;;;;;;5052069;28;19908;-68
2023/11/17 08:41:16;;;;;;;;;;;16.40;92.30;;;;;;5052066;28;19967;-68
2023/11/17 08:43:42;;;;;;;;;;;16.50;92.30;;;;;;5059340;28;19960;-68
2023/11/17 08:46:07;;;;;;;;;;;16.40;92.20;;;;;;5052082;28;19913;-68
2023/11/17 08:48:36;;;;;;;;;;;16.40;92.10;;;;;;5051951;28;20295;-68
2023/11/17 08:51:06;;;;;;;;;;;16.30;89.50;;;;;;5052091;28;20315;-68
2023/11/17 08:53:31;;;;;;;;;;;16.40;92.10;;;;;;5051878;28;19913;-68
2023/11/17 08:56:00;;;;;;;;;;;16.30;92.00;;;;;;5051993;28;19913;-68
2023/11/17 08:58:26;;;;;;;;;;;16.40;92.10;;;;;;5051988;28;19916;-68
2023/11/17 09:00:52;;;;;;;;;;;16.40;92.00;;;;;;5052330;28;19917;-68
2023/11/17 09:03:18;;;;;;;;;;;16.40;92.00;;;;;;5033887;28;19927;-68
2023/11/17 09:05:45;;;;;;;;;;;16.40;91.90;;;;;;5052090;28;19913;-68
2023/11/17 09:08:11;;;;;;;;;;;16.40;92.00;;;;;;5052096;28;19969;-68
2023/11/17 09:10:37;;;;;;;;;;;16.40;92.10;;;;;;5051764;28;19909;-68
2023/11/17 09:13:06;;;;;;;;;;;16.30;92.10;;;;;;5052158;28;19915;-68
2023/11/17 09:15:34;;;;;;;;;;;16.40;91.00;;;;;;5052065;28;20004;-68
2023/11/17 09:18:00;;;;;;;;;;;16.40;90.20;;;;;;5052076;28;19915;-68
2023/11/17 09:20:27;;;;;;;;;;;16.40;92.00;;;;;;5051613;28;20007;-68
2023/11/17 09:22:54;;;;;;;;;;;16.40;92.00;;;;;;5051957;28;19913;-68
2023/11/17 09:25:23;;;;;;;;;;;16.40;92.10;;;;;;5053368;28;19909;-68
2023/11/17 09:27:51;;;;;;;;;;;16.50;92.40;;;;;;5055319;28;19955;-70
2023/11/17 09:30:17;;;;;;;;;;;16.30;92.10;;;;;;5055830;28;19909;-69
2023/11/17 09:32:49;;;;;;;;;;;16.30;92.20;;;;;;5055433;28;19909;-72
2023/11/17 09:35:16;;;;;;;;;;;16.40;92.40;;;;;;5059004;28;20287;-68
2023/11/17 09:37:44;;;;;;;;;;;16.50;92.40;;;;;;5055442;28;20348;-69
2023/11/17 09:40:11;;;;;;;;;;;16.30;92.30;;;;;;5055371;28;20264;-68
2023/11/17 09:42:38;;;;;;;;;;;16.50;91.60;;;;;;5055369;28;19913;-68
2023/11/17 09:45:06;;;;;;;;;;;16.40;92.70;;;;;;5055373;28;20000;-67
2023/11/17 09:47:33;;;;;;;;;;;16.30;91.80;;;;;;5055246;28;20298;-67
2023/11/17 09:49:59;;;;;;;;;;;16.20;92.50;;;;;;5055191;28;19916;-68
2023/11/17 09:52:25;;;;;;;;;;;16.40;92.60;;;;;;5055163;28;19931;-68
2023/11/17 09:54:52;;;;;;;;;;;16.40;92.70;;;;;;5055111;28;19913;-68
2023/11/17 09:57:18;;;;;;;;;;;16.40;92.90;;;;;;5055305;28;19913;-68
2023/11/17 09:59:44;;;;;;;;;;;16.50;92.90;;;;;;5054913;28;19963;-69
2023/11/17 10:02:11;;;;;;;;;;;16.40;92.60;;;;;;5054672;28;20286;-69
2023/11/17 10:04:37;;;;;;;;;;;16.70;92.70;;;;;;5054974;28;20334;-67
2023/11/17 10:07:05;;;;;;;;;;;16.50;92.60;;;;;;5054580;28;19909;-68
2023/11/17 10:09:32;;;;;;;;;;;16.40;92.80;;;;;;5054926;28;19913;-68
2023/11/17 10:11:59;;;;;;;;;;;16.50;92.70;;;;;;5054720;28;20246;-68
2023/11/17 10:14:26;;;;;;;;;;;16.50;92.60;;;;;;5054614;28;20030;-68
2023/11/17 10:16:54;;;;;;;;;;;16.40;92.40;;;;;;5054661;28;19916;-67
2023/11/17 10:19:20;;;;;;;;;;;16.50;92.90;;;;;;5054602;28;19913;-67
2023/11/17 10:21:47;;;;;;;;;;;16.40;92.70;;;;;;5054187;28;19917;-68
2023/11/17 10:24:13;;;;;;;;;;;16.60;92.60;;;;;;5054548;28;19913;-67
2023/11/17 10:29:46;;;;;;;;;;;16.70;89.90;;;;;;5060995;28;19916;-68
2023/11/17 10:32:13;;;;;;;;;;;16.70;92.00;;;;;;5054354;28;19916;-68
2023/11/17 10:34:41;;;;;;;;;;;16.80;92.30;;;;;;5053991;28;19951;-67
2023/11/17 10:37:09;;;;;;;;;;;16.80;92.20;;;;;;5053792;28;19912;-67
2023/11/17 10:39:51;;;;;;;;;;;16.70;92.20;;;;;;5054134;28;19982;-67
2023/11/17 10:42:17;;;;;;;;;;;16.80;90.00;;;;;;5054193;28;19947;-68
2023/11/17 10:44:43;;;;;;;;;;;16.80;92.30;;;;;;5054106;28;19908;-68
2023/11/17 10:47:09;;;;;;;;;;;16.80;92.30;;;;;;5054075;28;20351;-67
2023/11/17 10:49:35;;;;;;;;;;;16.70;92.40;;;;;;5054059;28;19909;-67
2023/11/17 10:52:05;;;;;;;;;;;16.80;92.30;;;;;;5053621;28;19913;-68
2023/11/17 10:54:33;;;;;;;;;;;16.80;92.30;;;;;;5054909;28;19913;-68
2023/11/17 10:57:12;;;;;;;;;;;16.80;92.30;;;;;;5053927;28;19908;-67
2023/11/17 10:59:55;;;;;;;;;;;16.80;90.00;;;;;;5051660;28;20419;-68
2023/11/17 11:02:25;;;;;;;;;;;16.80;92.10;;;;;;5053414;28;19915;-68
2023/11/17 11:04:51;;;;;;;;;;;16.90;92.40;;;;;;5053418;28;20368;-68
2023/11/17 11:07:16;;;;;;;;;;;16.90;92.00;;;;;;5053741;28;19909;-67
2023/11/17 11:09:42;;;;;;;;;;;17.00;91.80;;;;;;5053443;28;19912;-68
2023/11/17 11:12:12;;;;;;;;;;;17.20;92.00;;;;;;5053335;28;20371;-68
2023/11/17 11:14:40;;;;;;;;;;;17.30;91.80;;;;;;5053222;28;20453;-69
2023/11/17 11:17:06;;;;;;;;;;;17.40;91.80;;;;;;5053233;28;19913;-68
2023/11/17 11:19:33;;;;;;;;;;;17.50;91.50;;;;;;5053140;28;19912;-68
2023/11/17 11:22:04;;;;;;;;;;;18.00;91.80;;;;;;5053137;28;19913;-68
2023/11/17 11:24:33;;;;;;;;;;;17.60;90.90;;;;;;5060346;28;19913;-68
2023/11/17 11:27:00;;;;;;;;;;;17.70;91.50;;;;;;5052959;28;20379;-68
2023/11/17 11:29:28;;;;;;;;;;;17.70;91.50;;;;;;5053777;28;20029;-68
2023/11/17 11:31:55;;;;;;;;;;;17.60;91.60;;;;;;5053020;28;20399;-68
2023/11/17 11:34:21;;;;;;;;;;;17.60;91.60;;;;;;5053170;28;20054;-68
2023/11/17 11:36:48;;;;;;;;;;;17.70;91.60;;;;;;5052983;28;20069;-68
2023/11/17 11:39:14;;;;;;;;;;;17.70;91.40;;;;;;5052998;28;19909;-68
2023/11/17 11:41:41;;;;;;;;;;;17.80;91.70;;;;;;5053166;28;19909;-69
2023/11/17 11:44:09;;;;;;;;;;;17.90;91.40;;;;;;5052812;28;19916;-71
2023/11/17 11:46:37;;;;;;;;;;;17.80;91.40;;;;;;5052570;28;19910;-68
2023/11/17 11:49:05;;;;;;;;;;;18.20;91.30;;;;;;5052176;28;19912;-67
2023/11/17 11:51:32;;;;;;;;;;;19.40;91.60;;;;;;5052773;28;19909;-68
2023/11/17 11:53:59;;;;;;;;;;;18.00;91.20;;;;;;5052639;28;19909;-68
2023/11/17 11:56:28;;;;;;;;;;;18.10;91.40;;;;;;5052335;28;19909;-68
2023/11/17 11:58:54;;;;;;;;;;;18.00;87.60;;;;;;5052643;28;19916;-68
2023/11/17 12:01:20;;;;;;;;;;;18.00;91.00;;;;;;5052342;28;19917;-73
2023/11/17 12:03:48;;;;;;;;;;;18.00;91.00;;;;;;5052286;28;19952;-69
2023/11/17 12:06:24;;;;;;;;;;;18.40;91.50;;;;;;5052661;28;19913;-68
2023/11/17 12:09:15;;;;;;;;;;;18.10;87.90;;;;;;5052645;28;19909;-69
2023/11/17 12:11:49;;;;;;;;;;;18.10;87.90;;;;;;5052672;28;19931;-69
2023/11/17 12:14:15;;;;;;;;;;;18.20;88.60;;;;;;5052170;28;19909;-69
2023/11/17 12:16:50;;;;;;;;;;;18.20;91.30;;;;;;5052351;28;19909;-68
2023/11/17 12:19:16;;;;;;;;;;;18.10;91.10;;;;;;5051982;28;19908;-68
2023/11/17 12:21:48;;;;;;;;;;;18.20;91.40;;;;;;5052279;28;20007;-69
2023/11/17 12:24:15;;;;;;;;;;;18.20;91.30;;;;;;5052254;28;19909;-68
2023/11/17 12:26:41;;;;;;;;;;;18.30;91.40;;;;;;5051969;28;19936;-68
2023/11/17 12:29:11;;;;;;;;;;;18.40;91.20;;;;;;5052515;28;20083;-70
2023/11/17 12:31:37;;;;;;;;;;;18.50;91.20;;;;;;5052198;28;19913;-68
2023/11/17 12:34:05;;;;;;;;;;;18.60;91.10;;;;;;5052002;28;19916;-69
2023/11/17 12:36:30;;;;;;;;;;;18.60;90.70;;;;;;5051915;28;20268;-69
2023/11/17 12:39:03;;;;;;;;;;;18.50;90.80;;;;;;5034080;28;19916;-68
2023/11/17 12:41:35;;;;;;;;;;;18.60;87.10;;;;;;5051809;28;20387;-68
2023/11/17 12:44:01;;;;;;;;;;;18.50;91.10;;;;;;5052159;28;19916;-68
2023/11/17 12:46:29;;;;;;;;;;;18.50;90.90;;;;;;5052079;28;19924;-68
2023/11/17 12:48:56;;;;;;;;;;;18.50;91.20;;;;;;5052108;28;19915;-68
2023/11/17 12:51:24;;;;;;;;;;;18.50;91.30;;;;;;5051648;28;19916;-68
2023/11/17 12:53:50;;;;;;;;;;;18.30;91.20;;;;;;5051934;28;19909;-68
2023/11/17 12:56:17;;;;;;;;;;;18.50;91.30;;;;;;5051701;28;19916;-68
2023/11/17 12:58:43;;;;;;;;;;;18.60;91.10;;;;;;5052770;28;20275;-68
2023/11/17 13:01:16;;;;;;;;;;;18.80;90.70;;;;;;5055685;28;19978;-68
2023/11/17 13:03:46;;;;;;;;;;;18.80;90.70;;;;;;5055551;28;19967;-68
2023/11/17 13:06:12;;;;;;;;;;;18.90;86.50;;;;;;5055881;28;19912;-68
2023/11/17 13:08:38;;;;;;;;;;;18.90;90.80;;;;;;5055595;28;19932;-68
2023/11/17 13:11:11;;;;;;;;;;;18.80;90.80;;;;;;5055847;28;20347;-68
2023/11/17 13:13:37;;;;;;;;;;;19.00;87.00;;;;;;5055499;28;20061;-68
2023/11/17 13:16:08;;;;;;;;;;;18.70;90.70;;;;;;5056052;28;19940;-69
2023/11/17 13:18:34;;;;;;;;;;;18.80;90.60;;;;;;5055713;28;19916;-70
2023/11/17 13:21:00;;;;;;;;;;;18.70;91.10;;;;;;5055654;28;19917;-70
2023/11/17 13:23:27;;;;;;;;;;;18.70;91.10;;;;;;5037641;28;20260;-70
2023/11/17 13:26:00;;;;;;;;;;;18.50;91.20;;;;;;5055491;28;19945;-69
2023/11/17 13:28:27;;;;;;;;;;;18.60;87.70;;;;;;5055596;28;19917;-70
2023/11/17 13:30:52;;;;;;;;;;;18.50;91.30;;;;;;5055495;28;20067;-70
2023/11/17 13:33:35;;;;;;;;;;;18.60;91.70;;;;;;5055224;28;19909;-70
2023/11/17 13:36:02;;;;;;;;;;;18.50;91.30;;;;;;5055449;28;20264;-70
2023/11/17 13:38:28;;;;;;;;;;;18.50;91.20;;;;;;5055397;28;19913;-70
2023/11/17 13:40:54;;;;;;;;;;;18.40;91.50;;;;;;5054868;28;19946;-70
2023/11/17 13:43:20;;;;;;;;;;;18.40;91.60;;;;;;5054951;28;19917;-71
2023/11/17 13:45:48;;;;;;;;;;;18.50;91.80;;;;;;5055312;28;19913;-69
2023/11/17 13:48:15;;;;;;;;;;;18.50;91.60;;;;;;5055207;28;20305;-70
2023/11/17 13:50:49;;;;;;;;;;;18.70;91.40;;;;;;5054642;28;20008;-70
2023/11/17 13:53:17;;;;;;;;;;;18.70;91.30;;;;;;5054982;28;19913;-70
2023/11/17 13:55:44;;;;;;;;;;;18.80;91.10;;;;;;5054889;28;19909;-70
2023/11/17 13:58:10;;;;;;;;;;;18.90;91.00;;;;;;5054861;28;19916;-70
2023/11/17 14:00:36;;;;;;;;;;;19.00;90.80;;;;;;5054712;28;19917;-70
2023/11/17 14:03:03;;;;;;;;;;;18.90;90.90;;;;;;5054864;28;19928;-70
2023/11/17 14:05:29;;;;;;;;;;;19.00;90.70;;;;;;5054616;28;19909;-70
2023/11/17 14:07:55;;;;;;;;;;;18.90;91.00;;;;;;5054636;28;19928;-70
2023/11/17 14:10:21;;;;;;;;;;;18.80;90.80;;;;;;5053554;28;19909;-70
2023/11/17 14:12:47;;;;;;;;;;;18.80;91.00;;;;;;5054551;28;19909;-70
2023/11/17 14:15:13;;;;;;;;;;;18.70;91.00;;;;;;5054267;28;19919;-70
2023/11/17 14:17:40;;;;;;;;;;;18.60;91.00;;;;;;5054363;28;19909;-70
2023/11/17 14:20:09;;;;;;;;;;;18.60;91.20;;;;;;5054330;28;19965;-70
2023/11/17 14:22:35;;;;;;;;;;;18.60;90.20;;;;;;5054332;28;20374;-70